createdAt,value
2023-04-27T00:00:00.260Z,11.45
2023-04-27T00:18:35.426Z,11.54
2023-04-27T00:22:25.018Z,11.48
2023-04-27T00:33:44.805Z,11.37
2023-04-27T00:37:37.767Z,11.32
2023-04-27T00:41:26.722Z,11.32
2023-04-27T00:44:35.925Z,11.34
2023-04-27T00:48:28.091Z,11.38
2023-04-27T00:52:12.586Z,11.38
2023-04-27T00:56:14.322Z,11.37
2023-04-27T01:00:18.838Z,11.30
2023-04-27T01:04:09.683Z,11.35
2023-04-27T01:08:20.927Z,11.28
2023-04-27T01:11:40.968Z,11.19
2023-04-27T01:14:49.431Z,11.03
2023-04-27T01:17:25.046Z,11.11
2023-04-27T01:20:24.786Z,11.26
2023-04-27T01:23:54.302Z,11.25
2023-04-27T01:26:47.509Z,11.19
2023-04-27T01:30:25.962Z,11.19
2023-04-27T01:38:28.145Z,11.06
2023-04-27T01:41:58.766Z,11.15
2023-04-27T01:45:33.150Z,11.18
2023-04-27T01:48:30.739Z,11.09
2023-04-27T01:51:38.394Z,11.06
2023-04-27T01:55:35.154Z,11.04
2023-04-27T01:59:29.801Z,10.96
2023-04-27T02:02:27.988Z,11.01
2023-04-27T02:05:51.512Z,11.03
2023-04-27T02:09:29.479Z,10.86
2023-04-27T02:13:22.482Z,10.67
2023-04-27T02:20:54.194Z,10.44
2023-04-27T02:24:32.808Z,10.32
2023-04-27T02:27:49.565Z,10.38
2023-04-27T02:34:56.898Z,10.54
2023-04-27T02:38:24.197Z,10.60
2023-04-27T02:41:21.681Z,10.60
2023-04-27T02:44:18.694Z,10.66
2023-04-27T02:51:11.391Z,10.68
2023-04-27T02:54:30.390Z,10.66
2023-04-27T03:01:13.803Z,10.75
2023-04-27T03:04:24.119Z,10.79
2023-04-27T03:08:21.460Z,10.72
2023-04-27T03:11:58.198Z,10.76
2023-04-27T03:15:11.427Z,10.81
2023-04-27T03:18:42.228Z,10.88
2023-04-27T03:36:58.252Z,11.00
2023-04-27T03:39:30.648Z,11.09
2023-04-27T03:46:17.602Z,11.14
2023-04-27T03:49:03.408Z,11.17
2023-04-27T03:51:57.186Z,11.22
2023-04-27T03:54:55.263Z,11.25
2023-04-27T03:57:54.889Z,11.34
2023-04-27T04:01:24.258Z,11.41
2023-04-27T04:04:51.429Z,11.53
2023-04-27T04:08:47.302Z,11.68
2023-04-27T04:12:21.321Z,11.67
2023-04-27T04:19:29.550Z,11.47
2023-04-27T04:30:07.321Z,11.30
2023-04-27T04:33:41.945Z,11.44
2023-04-27T04:37:20.031Z,11.44
2023-04-27T04:41:51.548Z,11.36
2023-04-27T04:45:17.318Z,11.38
2023-04-27T04:52:02.445Z,11.43
2023-04-27T04:55:42.346Z,11.45
2023-04-27T05:06:49.407Z,11.37
2023-04-27T05:10:39.390Z,11.29
2023-04-27T05:14:17.646Z,11.31
2023-04-27T05:17:45.420Z,11.41
2023-04-27T05:21:57.292Z,11.55
2023-04-27T05:25:39.338Z,11.84
2023-04-27T05:29:05.624Z,12.13
2023-04-27T05:32:33.556Z,12.32
2023-04-27T05:36:33.409Z,12.62
2023-04-27T05:43:38.408Z,12.54
2023-04-27T05:51:27.616Z,12.86
2023-04-27T05:55:03.243Z,13.85
2023-04-27T05:59:05.063Z,14.20
2023-04-27T06:03:07.618Z,14.53
2023-04-27T06:07:26.679Z,15.71
2023-04-27T06:10:43.668Z,17.12
2023-04-27T06:14:33.773Z,17.38
2023-04-27T06:18:20.815Z,17.22
2023-04-27T06:21:56.421Z,17.92
2023-04-27T06:26:03.983Z,16.25
2023-04-27T06:30:00.433Z,15.59
2023-04-27T06:33:17.498Z,16.74
2023-04-27T06:37:30.670Z,17.21
2023-04-27T06:41:11.459Z,17.26
2023-04-27T06:44:48.739Z,17.86
2023-04-27T06:48:34.521Z,17.80
2023-04-27T06:52:14.464Z,18.06
2023-04-27T06:55:39.587Z,18.44
2023-04-27T06:58:56.637Z,18.67
2023-04-27T07:02:25.669Z,18.76
2023-04-27T07:06:00.440Z,19.16
2023-04-27T07:09:41.530Z,19.85
2023-04-27T07:13:15.848Z,19.11
2023-04-27T07:17:12.627Z,18.68
2023-04-27T07:20:29.588Z,19.05
2023-04-27T07:24:33.552Z,19.11
2023-04-27T07:28:33.528Z,19.30
2023-04-27T07:35:34.488Z,18.80
2023-04-27T07:39:16.569Z,18.91
2023-04-27T07:42:48.604Z,19.08
2023-04-27T07:46:27.620Z,19.20
2023-04-27T07:50:04.502Z,20.05
2023-04-27T07:53:59.593Z,19.78
2023-04-27T07:57:28.362Z,20.34
2023-04-27T08:00:54.345Z,19.09
2023-04-27T08:04:41.203Z,19.77
2023-04-27T08:08:19.830Z,20.96
2023-04-27T08:12:09.616Z,20.49
2023-04-27T08:15:48.583Z,20.99
2023-04-27T08:19:33.682Z,20.92
2023-04-27T08:23:12.832Z,21.42
2023-04-27T08:26:40.586Z,21.01
2023-04-27T08:30:27.596Z,20.96
2023-04-27T08:33:55.759Z,20.34
2023-04-27T08:37:29.572Z,20.12
2023-04-27T08:41:35.398Z,20.23
2023-04-27T08:45:05.618Z,20.01
2023-04-27T08:48:38.815Z,20.84
2023-04-27T08:52:29.647Z,21.30
2023-04-27T08:55:56.850Z,19.90
2023-04-27T08:59:34.636Z,20.60
2023-04-27T09:09:54.719Z,22.01
2023-04-27T09:13:31.627Z,20.89
2023-04-27T09:20:37.689Z,21.58
2023-04-27T09:24:05.973Z,21.29
2023-04-27T09:27:34.777Z,19.93
2023-04-27T09:31:10.737Z,21.01
2023-04-27T09:34:30.951Z,22.51
2023-04-27T09:41:37.189Z,21.77
2023-04-27T09:45:13.694Z,21.78
2023-04-27T09:48:57.645Z,22.29
2023-04-27T09:52:44.635Z,23.68
2023-04-27T09:59:39.684Z,23.42
2023-04-27T10:03:38.748Z,22.49
2023-04-27T10:07:19.693Z,23.72
2023-04-27T10:10:50.662Z,23.11
2023-04-27T10:14:20.126Z,21.46
2023-04-27T10:17:36.902Z,20.88
2023-04-27T10:21:00.807Z,20.28
2023-04-27T10:24:48.748Z,21.40
2023-04-27T10:35:42.870Z,22.65
2023-04-27T10:43:41.640Z,23.13
2023-04-27T10:46:57.991Z,22.91
2023-04-27T10:50:29.779Z,23.12
2023-04-27T10:54:12.813Z,23.22
2023-04-27T10:58:37.690Z,23.94
2023-04-27T11:02:08.837Z,23.11
2023-04-27T11:05:52.765Z,23.24
2023-04-27T11:09:32.133Z,23.52
2023-04-27T11:13:12.850Z,22.29
2023-04-27T11:20:27.615Z,23.30
2023-04-27T11:27:26.818Z,24.46
2023-04-27T11:30:37.783Z,23.22
2023-04-27T11:34:13.788Z,23.08
2023-04-27T11:38:00.540Z,24.20
2023-04-27T11:45:36.801Z,22.39
2023-04-27T11:49:19.296Z,21.84
2023-04-27T11:56:40.924Z,22.36
2023-04-27T12:00:49.314Z,23.51
2023-04-27T12:03:51.005Z,24.43
2023-04-27T12:07:26.161Z,23.54
2023-04-27T12:10:59.869Z,22.11
2023-04-27T12:15:04.944Z,22.06
2023-04-27T12:18:38.549Z,22.80
2023-04-27T12:22:06.888Z,22.61
2023-04-27T12:25:16.112Z,21.59
2023-04-27T12:28:08.507Z,22.25
2023-04-27T12:31:27.811Z,22.47
2023-04-27T12:34:35.984Z,23.06
2023-04-27T12:37:46.622Z,22.96
2023-04-27T12:41:17.876Z,22.78
2023-04-27T12:44:42.738Z,22.88
2023-04-27T12:48:07.735Z,22.73
2023-04-27T12:51:18.494Z,22.15
2023-04-27T12:54:02.161Z,22.21
2023-04-27T12:57:23.242Z,21.99
2023-04-27T13:00:35.502Z,22.34
2023-04-27T13:04:13.351Z,21.43
2023-04-27T13:06:49.229Z,21.60
2023-04-27T13:09:48.927Z,21.35
2023-04-27T13:12:56.109Z,21.24
2023-04-27T13:16:13.117Z,21.35
2023-04-27T13:19:12.628Z,20.71
2023-04-27T13:21:43.797Z,20.40
2023-04-27T13:24:56.758Z,20.92
2023-04-27T13:27:52.192Z,20.59
2023-04-27T13:30:25.803Z,20.41
2023-04-27T13:33:25.048Z,20.19
2023-04-27T13:35:58.753Z,20.28
2023-04-27T13:38:57.107Z,20.54
2023-04-27T13:41:27.532Z,20.69
2023-04-27T13:44:00.002Z,20.54
2023-04-27T13:46:48.502Z,19.81
2023-04-27T13:50:00.248Z,19.86
2023-04-27T13:52:33.081Z,20.05
2023-04-27T13:55:47.530Z,19.98
2023-04-27T13:59:01.314Z,19.94
2023-04-27T14:02:29.512Z,19.94
2023-04-27T14:05:41.152Z,19.61
2023-04-27T14:09:17.970Z,19.71
2023-04-27T14:12:06.568Z,19.90
2023-04-27T14:15:23.544Z,19.52
2023-04-27T14:18:50.054Z,19.56
2023-04-27T14:21:25.422Z,19.54
2023-04-27T14:23:54.851Z,19.38
2023-04-27T14:27:04.265Z,19.39
2023-04-27T14:30:14.295Z,19.13
2023-04-27T14:32:50.710Z,19.20
2023-04-27T14:36:16.081Z,19.10
2023-04-27T14:38:47.252Z,19.12
2023-04-27T14:41:40.782Z,19.06
2023-04-27T14:44:27.039Z,19.02
2023-04-27T14:46:59.324Z,18.96
2023-04-27T14:49:29.698Z,18.92
2023-04-27T14:52:11.038Z,18.84
2023-04-27T14:54:59.790Z,18.79
2023-04-27T14:57:46.896Z,18.62
2023-04-27T15:00:20.471Z,18.45
2023-04-27T15:03:03.397Z,18.19
2023-04-27T15:05:36.076Z,18.02
2023-04-27T15:08:05.525Z,17.92
2023-04-27T15:10:41.588Z,17.81
2023-04-27T15:13:23.231Z,17.79
2023-04-27T15:16:34.411Z,17.70
2023-04-27T15:20:08.122Z,17.64
2023-04-27T15:23:03.185Z,17.66
2023-04-27T15:25:30.960Z,17.69
2023-04-27T15:28:03.281Z,17.60
2023-04-27T15:30:39.907Z,17.62
2023-04-27T15:33:28.289Z,17.56
2023-04-27T15:35:57.018Z,17.56
2023-04-27T15:38:26.848Z,17.63
2023-04-27T15:40:57.196Z,17.64
2023-04-27T15:43:26.076Z,17.60
2023-04-27T15:45:54.300Z,17.68
2023-04-27T15:48:22.561Z,17.75
2023-04-27T15:50:50.885Z,17.71
2023-04-27T15:53:20.015Z,17.77
2023-04-27T15:56:09.478Z,17.70
2023-04-27T15:58:38.409Z,17.80
2023-04-27T16:01:06.995Z,17.75
2023-04-27T16:03:36.433Z,17.74
2023-04-27T16:06:05.288Z,17.81
2023-04-27T16:08:34.225Z,17.76
2023-04-27T16:11:07.313Z,17.78
2023-04-27T16:13:37.581Z,17.74
2023-04-27T16:16:08.667Z,17.68
2023-04-27T16:18:37.397Z,17.61
2023-04-27T16:21:06.374Z,17.64
2023-04-27T16:23:34.475Z,17.63
2023-04-27T16:26:02.688Z,17.57
2023-04-27T16:28:32.959Z,17.45
2023-04-27T16:31:01.940Z,17.44
2023-04-27T16:33:31.934Z,17.44
2023-04-27T16:36:00.449Z,17.45
2023-04-27T16:38:28.476Z,17.48
2023-04-27T16:40:58.565Z,17.41
2023-04-27T16:43:27.841Z,17.31
2023-04-27T16:45:56.679Z,17.22
2023-04-27T16:48:25.143Z,17.10
2023-04-27T16:50:55.204Z,17.03
2023-04-27T16:53:24.008Z,16.92
2023-04-27T16:55:53.193Z,16.88
2023-04-27T16:58:20.930Z,16.83
2023-04-27T17:00:50.067Z,16.80
2023-04-27T17:03:19.753Z,16.68
2023-04-27T17:05:48.619Z,16.42
2023-04-27T17:08:18.526Z,16.33
2023-04-27T17:10:47.001Z,16.35
2023-04-27T17:13:16.553Z,16.19
2023-04-27T17:15:46.032Z,15.72
2023-04-27T17:18:16.818Z,15.40
2023-04-27T17:20:45.165Z,15.32
2023-04-27T17:23:13.891Z,15.16
2023-04-27T17:25:42.336Z,14.95
2023-04-27T17:28:11.056Z,14.79
2023-04-27T17:30:40.093Z,14.73
2023-04-27T17:33:08.302Z,14.74
2023-04-27T17:35:36.621Z,14.73
2023-04-27T17:38:05.079Z,14.75
2023-04-27T17:40:32.880Z,14.77
2023-04-27T17:43:01.226Z,14.61
2023-04-27T17:45:29.380Z,14.43
2023-04-27T17:48:00.748Z,14.25
2023-04-27T17:50:30.999Z,14.16
2023-04-27T17:52:59.254Z,14.06
2023-04-27T17:55:30.391Z,13.87
2023-04-27T17:57:59.576Z,13.80
2023-04-27T18:00:28.930Z,13.60
2023-04-27T18:03:00.703Z,13.51
2023-04-27T18:05:29.052Z,13.42
2023-04-27T18:07:57.173Z,13.37
2023-04-27T18:10:27.184Z,13.29
2023-04-27T18:12:56.417Z,13.25
2023-04-27T18:15:24.720Z,13.30
2023-04-27T18:17:53.512Z,13.41
2023-04-27T18:20:23.338Z,13.31
2023-04-27T18:23:25.398Z,13.40
2023-04-27T18:27:20.352Z,13.50
2023-04-27T18:30:57.062Z,13.58
2023-04-27T18:33:51.774Z,13.27
2023-04-27T18:36:51.601Z,13.07
2023-04-27T18:40:33.226Z,13.09
2023-04-27T18:43:58.411Z,13.00
2023-04-27T18:46:51.080Z,12.85
2023-04-27T18:49:46.763Z,12.76
2023-04-27T18:52:19.192Z,12.78
2023-04-27T18:54:48.312Z,12.76
2023-04-27T18:57:18.946Z,12.66
2023-04-27T19:00:19.619Z,12.97
2023-04-27T19:06:24.954Z,12.88
2023-04-27T19:09:13.315Z,12.97
2023-04-27T19:12:35.263Z,12.60
2023-04-27T19:16:07.081Z,12.51
2023-04-27T19:19:21.790Z,12.35
2023-04-27T19:22:53.352Z,12.27
2023-04-27T19:25:23.708Z,12.29
2023-04-27T19:27:53.592Z,12.31
2023-04-27T19:30:50.431Z,12.27
2023-04-27T19:38:43.489Z,12.21
2023-04-27T19:41:54.592Z,12.18
2023-04-27T19:45:25.320Z,12.23
2023-04-27T19:48:42.326Z,12.14
2023-04-27T19:52:35.475Z,12.10
2023-04-27T19:55:44.613Z,12.02
2023-04-27T19:58:37.053Z,12.00
2023-04-27T20:01:15.169Z,11.94
2023-04-27T20:04:23.562Z,11.92
2023-04-27T20:07:31.587Z,11.92
2023-04-27T20:10:00.704Z,11.90
2023-04-27T20:15:17.951Z,11.85
2023-04-27T20:17:48.115Z,11.82
2023-04-27T20:20:18.329Z,11.86
2023-04-27T20:22:52.406Z,11.83
2023-04-27T20:25:58.923Z,11.82
2023-04-27T20:28:49.104Z,11.75
2023-04-27T20:31:25.638Z,11.75
2023-04-27T20:34:21.127Z,11.72
2023-04-27T20:36:54.256Z,11.75
2023-04-27T20:39:23.026Z,11.68
2023-04-27T20:41:54.502Z,11.75
2023-04-27T20:44:32.495Z,11.68
2023-04-27T20:47:01.329Z,11.76
2023-04-27T20:49:47.944Z,11.78
2023-04-27T20:52:18.019Z,11.74
2023-04-27T20:54:45.859Z,11.72
2023-04-27T20:57:14.979Z,11.75
2023-04-27T20:59:45.695Z,11.78
2023-04-27T21:02:17.013Z,11.76
2023-04-27T21:04:52.165Z,11.81
2023-04-27T21:07:23.117Z,11.76
2023-04-27T21:09:51.571Z,11.74
2023-04-27T21:12:34.404Z,11.70
2023-04-27T21:15:03.541Z,11.69
2023-04-27T21:17:38.668Z,11.62
2023-04-27T21:20:11.814Z,11.60
2023-04-27T21:22:57.133Z,11.58
2023-04-27T21:25:26.017Z,11.67
2023-04-27T21:27:56.696Z,11.69
2023-04-27T21:30:26.433Z,11.67
2023-04-27T21:32:56.626Z,11.62
2023-04-27T21:35:25.294Z,11.61
2023-04-27T21:38:05.176Z,11.62
2023-04-27T21:40:35.528Z,11.59
2023-04-27T21:43:10.009Z,11.64
2023-04-27T21:45:55.853Z,11.63
2023-04-27T21:48:43.446Z,11.58
2023-04-27T21:51:15.624Z,11.62
2023-04-27T21:54:05.111Z,11.55
2023-04-27T21:56:34.193Z,11.62
2023-04-27T21:59:03.898Z,11.64
2023-04-27T22:01:32.204Z,11.58
2023-04-27T22:04:05.206Z,11.54
2023-04-27T22:06:51.152Z,11.62
2023-04-27T22:09:19.769Z,11.59
2023-04-27T22:11:48.466Z,11.63
2023-04-27T22:14:35.385Z,11.61
2023-04-27T22:17:04.222Z,11.62
2023-04-27T22:19:32.535Z,11.64
2023-04-27T22:22:04.740Z,11.67
2023-04-27T22:24:35.190Z,11.63
2023-04-27T22:27:04.158Z,11.62
2023-04-27T22:29:36.993Z,11.69
2023-04-27T22:32:24.333Z,11.71
2023-04-27T22:34:52.597Z,11.72
2023-04-27T22:37:31.174Z,11.63
2023-04-27T22:40:01.005Z,11.60
2023-04-27T22:42:30.232Z,11.51
2023-04-27T22:44:59.032Z,11.47
2023-04-27T22:47:33.725Z,11.44
2023-04-27T22:50:04.943Z,11.43
2023-04-27T22:52:34.419Z,11.52
2023-04-27T22:55:03.444Z,11.54
2023-04-27T22:57:32.120Z,11.53
2023-04-27T23:00:00.661Z,11.49
2023-04-27T23:02:35.339Z,11.51
2023-04-27T23:05:11.112Z,11.49
2023-04-27T23:07:45.704Z,11.49
2023-04-27T23:10:15.377Z,11.52
2023-04-27T23:12:46.522Z,11.47
2023-04-27T23:15:15.930Z,11.40
2023-04-27T23:17:46.087Z,11.39
2023-04-27T23:20:27.880Z,11.35
2023-04-27T23:22:57.522Z,11.38
2023-04-27T23:25:26.304Z,11.40
2023-04-27T23:27:59.159Z,11.45
2023-04-27T23:30:28.032Z,11.49
2023-04-27T23:32:56.994Z,11.46
2023-04-27T23:35:28.885Z,11.47
2023-04-27T23:38:05.010Z,11.49
2023-04-27T23:40:35.171Z,11.50
2023-04-27T23:43:04.005Z,11.49
2023-04-27T23:45:34.431Z,11.48
2023-04-27T23:48:12.746Z,11.45
2023-04-27T23:51:03.526Z,11.35
2023-04-27T23:53:33.376Z,11.28
2023-04-27T23:56:01.671Z,11.27
2023-04-27T23:58:30.465Z,11.29
